AirNav   Everest Fuels
 
 1073 users online  

NV35 Hudson Airport
Austin, Nevada, USA

GOING TO AUSTIN?


FAA INFORMATION EFFECTIVE 01 DECEMBER 2022

Location

FAA Identifier: NV35
Lat/Long: 39-32-39.7140N 117-45-02.4160W
39-32.661900N 117-45.040267W
39.5443650,-117.7506711
(estimated)
Elevation: 5180 ft. / 1579 m (estimated)
Variation: 16E (1985)
From city: 27 miles W of AUSTIN, NV
Time zone: UTC -8 (UTC -7 during Daylight Saving Time)
Zip code: 89406

Airport Operations

Airport use: Private use. Permission required prior to landing
Activation date: 07/1966
Control tower: no
ARTCC: OAKLAND CENTER
FSS: RENO FLIGHT SERVICE STATION
Attendance: UNATNDD
Wind indicator: no
Segmented circle: no

Airport Services

Airframe service: NONE
Powerplant service: NONE

Runway Information

Runway 17/35

Dimensions: 5050 x 100 ft. / 1539 x 30 m
Surface: dirt, in poor condition
RUNWAY 17  RUNWAY 35
Traffic pattern: leftleft
Obstructions: none60 ft. pline, marked, 1200 ft. from runway, 20:1 slope to clear

Airport Ownership and Management from official FAA records

Ownership: Privately-owned
Owner: HUDSON OIL CO, INC
KANSAS CITY, KS 66103
Phone 913-362-4000
Manager: ROBERT PHILLIPS

Additional Remarks

FOR CD CTC OAKLAND ARTCC AT 510-745-3380.

Instrument Procedures

There are no published instrument procedures at NV35.

Some nearby airports with instrument procedures:

KNFL - Fallon Naval Air Station (Van Voorhis Field) Airport (45 nm W)
KFLX - Fallon Municipal Airport (46 nm W)
KLOL - Derby Field Airport (49 nm NW)
KSPZ - Silver Springs Airport (70 nm W)
KHTH - Hawthorne Industrial Airport (73 nm SW)
 
Loc | Ops | Rwys | IFR | FBO | Links
Com | Nav | Svcs | Stats | Notes
Area around NV35 (Hudson Airport)
 
Road maps at: MapQuest Bing Google
 
Aerial photo
No photo
 
Sectional chart

 
Airport distance calculator
Flying to Hudson Airport? Find the distance to fly.

From to NV35

Sunrise and sunset
Times for 04-Dec-2022
 Local
(UTC-8)
 Zulu
(UTC)
Morning civil twilight06:2614:26
Sunrise06:5614:56
Sunset16:2600:26
Evening civil twilight16:5600:56

Current date and time
Zulu (UTC)  05-Dec-2022 03:41:46
Local (UTC-8)  04-Dec-2022 19:41:46
 
METAR
KTMT 
26nm E 
050315Z AUTO 11006KT 10SM CLR M01/M02 A3002 RMK AO2 T10101021
KNFL 
45nm W 
050256Z 00000KT 10SM CLR 03/M05 A3002 RMK AO2 SLP135 T00281050 51017
KLOL 
49nm NW 
050253Z AUTO 14003KT 10SM CLR 01/M03 A3002 RMK AO2 SLP181 T00111033 51013
TAF
NOTAMs
Click for the latest NOTAMs
NOTAMs are issued by the DoD/FAA and will open in a separate window not controlled by AirNav.

 

 
 

Would you like to see your business listed on this page?

 If your business provides an interesting product or service to pilots, flight crews, aircraft, or users of the Hudson Airport, you should consider listing it here.  To start the listing process, click on the button below
 
Add a business
 

Other Pages about Hudson Airport

Update a link
 
Copyright © AirNav, LLC. All rights reserved. Privacy Policy  Contact